Time;durP1;ratioP1;P1;durP2;ratioP2;P2;SDS_P1;SDS_P2;PMS_P1;PMS_P2;Temp;Humidity;BMP_temperature;BMP_pressure;BME280_temperature;BME280_humidity;BME280_pressure;Samples;Min_cycle;Max_cycle;Signal;HPM_P1;HPM_P2
2024/02/01 00:00:34;;;;;;;1999.90;999.90;;;12.70;99.90;;;;;;5071933;28;20503;-67
2024/02/01 00:02:59;;;;;;;1999.90;999.90;;;12.80;99.90;;;;;;5071872;28;20035;-75
2024/02/01 00:05:25;;;;;;;1999.90;999.90;;;12.70;99.90;;;;;;5072240;28;20052;-68
2024/02/01 00:07:50;;;;;;;1999.90;999.90;;;12.70;99.90;;;;;;5072385;28;20028;-67
2024/02/01 00:10:16;;;;;;;1999.90;999.90;;;12.70;99.90;;;;;;5072641;28;20494;-67
2024/02/01 00:12:42;;;;;;;1999.90;999.90;;;12.70;99.90;;;;;;5072503;28;20470;-67
2024/02/01 00:15:08;;;;;;;1999.90;999.90;;;12.80;99.90;;;;;;5072510;28;20059;-74
2024/02/01 00:17:34;;;;;;;1999.90;999.90;;;12.70;99.90;;;;;;5072243;28;20035;-67
2024/02/01 00:20:00;;;;;;;1999.90;999.90;;;12.80;99.90;;;;;;5072466;28;20033;-74
2024/02/01 00:22:25;;;;;;;1999.90;999.90;;;12.80;99.90;;;;;;5072382;28;20031;-68
2024/02/01 00:24:53;;;;;;;1999.90;999.90;;;12.80;99.90;;;;;;5072368;28;20028;-67
2024/02/01 00:27:19;;;;;;;1999.90;999.90;;;12.80;99.90;;;;;;5072278;28;20134;-68
2024/02/01 00:29:45;;;;;;;1999.90;999.90;;;12.80;99.90;;;;;;5072410;28;20027;-75
2024/02/01 00:32:10;;;;;;;1999.90;999.90;;;12.70;99.90;;;;;;5072355;28;20020;-68
2024/02/01 00:34:42;;;;;;;1999.90;999.90;;;12.70;99.90;;;;;;5072192;28;20064;-74
2024/02/01 00:37:08;;;;;;;1999.90;999.90;;;12.70;99.90;;;;;;5072262;28;20811;-67
2024/02/01 00:39:33;;;;;;;1999.90;999.90;;;12.80;99.90;;;;;;5072677;28;20024;-67
2024/02/01 00:41:59;;;;;;;1999.90;999.90;;;12.80;99.90;;;;;;5076205;28;20432;-67
2024/02/01 00:44:25;;;;;;;1999.90;999.90;;;12.70;99.90;;;;;;5075740;28;20024;-67
2024/02/01 00:46:50;;;;;;;1999.90;999.90;;;12.80;99.90;;;;;;5076099;28;20032;-67
2024/02/01 00:49:16;;;;;;;1999.90;999.90;;;12.80;99.90;;;;;;5075875;28;20025;-67
2024/02/01 00:51:41;;;;;;;1999.90;999.90;;;12.80;99.90;;;;;;5076357;28;20048;-67
2024/02/01 00:54:07;;;;;;;1999.90;999.90;;;12.80;99.90;;;;;;5076142;28;20107;-67
2024/02/01 00:56:33;;;;;;;1999.90;999.90;;;12.90;99.90;;;;;;5075198;28;20031;-74
2024/02/01 00:58:58;;;;;;;1999.90;999.90;;;12.90;99.90;;;;;;5075235;28;20476;-67
2024/02/01 01:01:24;;;;;;;1999.90;999.90;;;12.90;99.90;;;;;;5075334;28;20021;-74
2024/02/01 01:03:50;;;;;;;1999.90;999.90;;;12.90;99.90;;;;;;5075518;28;20399;-67
2024/02/01 01:06:15;;;;;;;1999.90;999.90;;;13.00;99.90;;;;;;5075392;28;20522;-67
2024/02/01 01:08:41;;;;;;;1999.90;999.90;;;13.00;99.90;;;;;;5075101;28;20504;-75
2024/02/01 01:11:06;;;;;;;1999.90;999.90;;;13.00;99.90;;;;;;5075506;28;20183;-67
2024/02/01 01:13:32;;;;;;;1999.90;999.90;;;12.90;99.90;;;;;;5075387;28;20039;-67
2024/02/01 01:15:58;;;;;;;1999.90;999.90;;;12.90;99.90;;;;;;5075250;28;20039;-67
2024/02/01 01:18:24;;;;;;;1999.90;999.90;;;12.90;99.90;;;;;;5075437;28;20028;-67
2024/02/01 01:20:49;;;;;;;1999.90;999.90;;;12.90;99.90;;;;;;5075021;28;20506;-74
2024/02/01 01:23:15;;;;;;;1999.90;999.90;;;12.90;99.90;;;;;;5075480;28;20028;-74
2024/02/01 01:25:40;;;;;;;1999.90;999.90;;;12.90;99.90;;;;;;5075372;28;20081;-74
2024/02/01 01:28:06;;;;;;;1999.90;999.90;;;13.00;99.90;;;;;;5075188;28;20479;-67
2024/02/01 01:30:32;;;;;;;1999.90;999.90;;;13.00;99.90;;;;;;5074903;28;20103;-68
2024/02/01 01:32:57;;;;;;;1999.90;999.90;;;13.10;99.90;;;;;;5074924;28;20029;-67
2024/02/01 01:35:23;;;;;;;1999.90;999.90;;;13.00;99.90;;;;;;5075165;28;20025;-67
2024/02/01 01:37:49;;;;;;;1999.90;999.90;;;13.10;99.90;;;;;;5075203;28;20035;-75
2024/02/01 01:40:15;;;;;;;1999.90;999.90;;;13.10;99.90;;;;;;5074954;28;20391;-68
2024/02/01 01:42:45;;;;;;;1999.90;999.90;;;13.00;99.90;;;;;;5074837;28;20050;-67
2024/02/01 01:45:11;;;;;;;1999.90;999.90;;;13.00;99.90;;;;;;5074485;28;20056;-68
2024/02/01 01:47:36;;;;;;;1999.90;999.90;;;13.00;99.90;;;;;;5074650;28;20074;-74
2024/02/01 01:50:02;;;;;;;1999.90;999.90;;;13.10;99.90;;;;;;5075004;28;20016;-67
2024/02/01 01:52:28;;;;;;;1999.90;999.90;;;13.10;99.90;;;;;;5074603;28;20506;-67
2024/02/01 01:54:58;;;;;;;1999.90;999.90;;;13.10;99.90;;;;;;5074940;28;20383;-74
2024/02/01 01:57:27;;;;;;;1999.90;999.90;;;13.10;99.90;;;;;;5074592;28;20376;-68
2024/02/01 01:59:55;;;;;;;1999.90;999.90;;;13.10;99.90;;;;;;5074817;28;20027;-67
2024/02/01 02:02:21;;;;;;;1999.90;999.90;;;13.20;99.90;;;;;;5073978;28;20405;-67
2024/02/01 02:04:50;;;;;;;1999.90;999.90;;;13.20;99.90;;;;;;5074226;28;20033;-67
2024/02/01 02:07:15;;;;;;;1999.90;999.90;;;13.10;99.90;;;;;;5074757;28;20063;-67
2024/02/01 02:09:41;;;;;;;1999.90;999.90;;;13.10;99.90;;;;;;5074481;28;20021;-67
2024/02/01 02:12:07;;;;;;;1999.90;999.90;;;13.10;99.90;;;;;;5074452;28;20475;-68
2024/02/01 02:14:32;;;;;;;1999.90;999.90;;;13.10;99.90;;;;;;5074020;28;20021;-74
2024/02/01 02:16:58;;;;;;;1999.90;999.90;;;13.10;99.90;;;;;;5074291;28;20033;-74
2024/02/01 02:19:25;;;;;;;1999.90;999.90;;;13.10;99.90;;;;;;5074236;28;20055;-67
2024/02/01 02:21:52;;;;;;;1999.90;999.90;;;13.10;99.90;;;;;;5073848;28;20495;-67
2024/02/01 02:24:19;;;;;;;1999.90;999.90;;;13.10;99.90;;;;;;5074221;28;20041;-74
2024/02/01 02:26:46;;;;;;;1999.90;999.90;;;13.10;99.90;;;;;;5073929;28;20497;-67
2024/02/01 02:29:15;;;;;;;1999.90;999.90;;;13.10;99.90;;;;;;5074079;28;20028;-68
2024/02/01 02:31:45;;;;;;;1999.90;999.90;;;13.20;99.90;;;;;;5074718;28;20031;-67
2024/02/01 02:34:11;;;;;;;1999.90;999.90;;;13.20;99.90;;;;;;5054163;28;20051;-67
2024/02/01 02:36:37;;;;;;;1999.90;999.90;;;13.20;99.90;;;;;;5053884;28;20395;-68
2024/02/01 02:39:03;;;;;;;1999.90;999.90;;;13.20;99.90;;;;;;5053751;28;20025;-67
2024/02/01 02:41:29;;;;;;;1999.90;999.90;;;13.20;99.90;;;;;;5053660;28;20032;-74
2024/02/01 02:43:56;;;;;;;1999.90;999.90;;;13.20;99.90;;;;;;5054097;28;20017;-67
2024/02/01 02:46:23;;;;;;;1999.90;999.90;;;13.20;99.90;;;;;;5053524;28;20028;-67
2024/02/01 02:48:49;;;;;;;1999.90;999.90;;;13.20;99.90;;;;;;5053670;28;20379;-74
2024/02/01 02:51:15;;;;;;;1999.90;999.90;;;13.10;99.90;;;;;;5053504;28;20025;-68
2024/02/01 02:53:41;;;;;;;1999.90;999.90;;;13.20;99.90;;;;;;5053534;28;20506;-67
2024/02/01 02:56:07;;;;;;;1999.90;999.90;;;13.10;99.90;;;;;;5053423;28;20037;-67
2024/02/01 02:58:37;;;;;;;1999.90;999.90;;;13.10;99.90;;;;;;5053448;28;20117;-68
2024/02/01 03:01:08;;;;;;;1999.90;999.90;;;13.10;99.90;;;;;;5061316;28;20051;-67
2024/02/01 03:03:40;;;;;;;1999.90;999.90;;;13.20;99.90;;;;;;5072740;28;20074;-67
2024/02/01 03:06:14;;;;;;;1999.90;999.90;;;13.20;99.90;;;;;;5073054;28;20052;-75
2024/02/01 03:08:43;;;;;;;1999.90;999.90;;;13.20;99.90;;;;;;5073323;28;20021;-67
2024/02/01 03:11:12;;;;;;;1999.90;999.90;;;13.10;99.90;;;;;;5073242;28;20056;-74
2024/02/01 03:13:39;;;;;;;1999.90;999.90;;;13.10;99.90;;;;;;5073282;28;20078;-67
2024/02/01 03:16:18;;;;;;;1999.90;999.90;;;13.10;99.90;;;;;;5072428;28;20028;-67
2024/02/01 03:18:49;;;;;;;1999.90;999.90;;;13.20;99.90;;;;;;5072799;28;20024;-67
2024/02/01 03:21:15;;;;;;;1999.90;999.90;;;13.20;99.90;;;;;;5073201;28;20454;-67
2024/02/01 03:23:43;;;;;;;1999.90;999.90;;;13.20;99.90;;;;;;5072881;28;20035;-67
2024/02/01 03:26:10;;;;;;;1999.90;999.90;;;13.20;99.90;;;;;;5072839;28;20036;-68
2024/02/01 03:28:40;;;;;;;1999.90;999.90;;;13.20;99.90;;;;;;5073005;28;20020;-67
2024/02/01 03:31:05;;;;;;;1999.90;999.90;;;13.20;99.90;;;;;;5072882;28;20391;-67
2024/02/01 03:33:38;;;;;;;1999.90;999.90;;;13.20;99.90;;;;;;5072859;28;20025;-67
2024/02/01 03:36:08;;;;;;;1999.90;999.90;;;13.20;99.90;;;;;;5072856;28;20029;-67
2024/02/01 03:38:36;;;;;;;1999.90;999.90;;;13.20;99.90;;;;;;5073009;28;20032;-67
2024/02/01 03:41:02;;;;;;;1999.90;999.90;;;13.20;99.90;;;;;;5073008;28;20103;-67
2024/02/01 03:43:28;;;;;;;1999.90;999.90;;;13.20;99.90;;;;;;5072831;28;20028;-67
2024/02/01 03:45:57;;;;;;;1999.90;999.90;;;13.30;99.90;;;;;;5072741;28;20036;-67
2024/02/01 03:48:23;;;;;;;1999.90;999.90;;;13.30;99.90;;;;;;5072563;28;20471;-67
2024/02/01 03:50:50;;;;;;;1999.90;999.90;;;13.30;99.90;;;;;;5072695;28;20035;-68
2024/02/01 03:53:16;;;;;;;1999.90;999.90;;;13.30;99.90;;;;;;5072533;28;20082;-67
2024/02/01 03:55:42;;;;;;;1999.90;999.90;;;13.40;99.90;;;;;;5072632;28;20031;-67
2024/02/01 03:58:08;;;;;;;1999.90;999.90;;;13.40;99.90;;;;;;5072621;28;20024;-67
2024/02/01 04:00:34;;;;;;;1999.90;999.90;;;13.40;99.90;;;;;;5071934;28;20551;-68
2024/02/01 04:03:04;;;;;;;1999.90;999.90;;;13.40;99.90;;;;;;5071879;28;20025;-67
2024/02/01 04:05:36;;;;;;;1999.90;999.90;;;13.40;99.90;;;;;;5072376;28;20114;-67
2024/02/01 04:08:06;;;;;;;1999.90;999.90;;;13.40;99.90;;;;;;5072413;28;20387;-67
2024/02/01 04:10:35;;;;;;;1999.90;999.90;;;13.40;99.90;;;;;;5072683;28;20029;-68
2024/02/01 04:13:07;;;;;;;1999.90;999.90;;;13.40;99.90;;;;;;5072473;28;20410;-74
2024/02/01 04:15:34;;;;;;;1999.90;999.90;;;13.40;99.90;;;;;;5074436;28;20033;-74
2024/02/01 04:18:04;;;;;;;1999.90;999.90;;;13.50;99.90;;;;;;5076788;28;20024;-75
2024/02/01 04:20:35;;;;;;;1999.90;999.90;;;13.50;99.90;;;;;;5076315;28;20533;-67
2024/02/01 04:23:00;;;;;;;1999.90;999.90;;;13.50;99.90;;;;;;5076284;28;20033;-67
2024/02/01 04:25:26;;;;;;;1999.90;999.90;;;13.50;99.90;;;;;;5076640;28;20055;-67
2024/02/01 04:27:54;;;;;;;1999.90;999.90;;;13.50;99.90;;;;;;5076296;28;20488;-67
2024/02/01 04:30:20;;;;;;;1999.90;999.90;;;13.50;99.90;;;;;;5076184;28;20542;-67
2024/02/01 04:32:47;;;;;;;1999.90;999.90;;;13.60;99.90;;;;;;5076336;28;20086;-67
2024/02/01 04:35:14;;;;;;;1999.90;999.90;;;13.60;99.90;;;;;;5076426;28;20071;-74
2024/02/01 04:37:40;;;;;;;1999.90;999.90;;;13.60;99.90;;;;;;5076339;28;20060;-67
2024/02/01 04:40:08;;;;;;;1999.90;999.90;;;13.60;99.90;;;;;;5076294;28;20035;-67
2024/02/01 04:42:35;;;;;;;1999.90;999.90;;;13.70;99.90;;;;;;5075861;28;20083;-74
2024/02/01 04:45:04;;;;;;;1999.90;999.90;;;13.60;99.90;;;;;;5075548;28;20025;-75
2024/02/01 04:47:32;;;;;;;1999.90;999.90;;;13.70;99.90;;;;;;5076147;28;20082;-67
2024/02/01 04:49:58;;;;;;;1999.90;999.90;;;13.70;99.90;;;;;;5075246;28;20074;-67
2024/02/01 04:52:24;;;;;;;1999.90;999.90;;;13.70;99.90;;;;;;5075314;28;20029;-67
2024/02/01 04:54:49;;;;;;;1999.90;999.90;;;13.70;99.90;;;;;;5075598;28;20024;-68
2024/02/01 04:57:15;;;;;;;1999.90;999.90;;;13.70;99.90;;;;;;5075811;28;20159;-67
2024/02/01 04:59:44;;;;;;;1999.90;999.90;;;13.70;99.90;;;;;;5075974;28;20021;-67
2024/02/01 05:02:11;;;;;;;1999.90;999.90;;;13.70;99.90;;;;;;5075541;28;20033;-67
2024/02/01 05:04:37;;;;;;;1999.90;999.90;;;13.70;99.90;;;;;;5075139;28;20055;-74
2024/02/01 05:07:05;;;;;;;1999.90;999.90;;;13.80;99.90;;;;;;5075327;28;20048;-67
2024/02/01 05:09:34;;;;;;;1999.90;999.90;;;13.80;99.90;;;;;;5075775;28;20029;-68
2024/02/01 05:12:01;;;;;;;1999.90;999.90;;;13.80;99.90;;;;;;5075777;28;20031;-67
2024/02/01 05:14:27;;;;;;;1999.90;999.90;;;13.80;99.90;;;;;;5074828;28;20024;-68
2024/02/01 05:16:53;;;;;;;1999.90;999.90;;;13.80;99.90;;;;;;5075250;28;20511;-67
2024/02/01 05:19:20;;;;;;;1999.90;999.90;;;13.90;99.90;;;;;;5075328;28;20422;-67
2024/02/01 05:21:45;;;;;;;1999.90;999.90;;;13.90;99.90;;;;;;5075300;28;20483;-67
2024/02/01 05:24:14;;;;;;;1999.90;999.90;;;13.90;99.90;;;;;;5075559;28;20028;-67
2024/02/01 05:26:40;;;;;;;1999.90;999.90;;;14.00;99.90;;;;;;5074724;28;20142;-67
2024/02/01 05:29:09;;;;;;;1999.90;999.90;;;14.00;99.90;;;;;;5074199;28;20035;-75
2024/02/01 05:31:37;;;;;;;1999.90;999.90;;;14.00;99.90;;;;;;5075349;28;20024;-67
2024/02/01 05:34:03;;;;;;;1999.90;999.90;;;14.00;99.90;;;;;;5074852;28;20074;-67
2024/02/01 05:36:29;;;;;;;1999.90;999.90;;;14.10;99.90;;;;;;5075301;28;20387;-68
2024/02/01 05:38:55;;;;;;;1999.90;999.90;;;14.10;99.90;;;;;;5074932;28;20025;-67
2024/02/01 05:41:21;;;;;;;1999.90;999.90;;;14.10;99.90;;;;;;5074957;28;20028;-67
2024/02/01 05:43:46;;;;;;;1999.90;999.90;;;14.20;99.90;;;;;;5073590;28;20063;-74
2024/02/01 05:46:15;;;;;;;1999.90;999.90;;;14.20;99.90;;;;;;5074126;28;20032;-67
2024/02/01 05:48:41;;;;;;;1999.90;999.90;;;14.20;99.90;;;;;;5074502;28;20070;-67
2024/02/01 05:51:07;;;;;;;1999.90;999.90;;;14.20;99.90;;;;;;5075037;28;20017;-67
2024/02/01 05:53:32;;;;;;;1999.90;999.90;;;14.30;99.90;;;;;;5074689;28;20031;-67
2024/02/01 05:55:59;;;;;;;1999.90;999.90;;;14.30;99.90;;;;;;5074618;28;20083;-67
2024/02/01 05:58:27;;;;;;;1999.90;999.90;;;14.30;99.90;;;;;;5074956;28;20024;-68
2024/02/01 06:00:53;;;;;;;1999.90;999.90;;;14.30;99.90;;;;;;5074241;28;20040;-67
2024/02/01 06:03:19;;;;;;;1999.90;999.90;;;14.30;99.90;;;;;;5072958;28;20388;-67
2024/02/01 06:05:48;;;;;;;1999.90;999.90;;;14.30;99.90;;;;;;5072620;28;20079;-67
2024/02/01 06:08:16;;;;;;;1999.90;999.90;;;14.40;99.90;;;;;;5073490;28;20403;-67
2024/02/01 06:10:42;;;;;;;1999.90;999.90;;;14.40;99.90;;;;;;5073743;28;20100;-67
2024/02/01 06:13:08;;;;;;;1999.90;999.90;;;14.40;99.90;;;;;;5073550;28;20103;-67
2024/02/01 06:15:34;;;;;;;1999.90;999.90;;;14.50;99.90;;;;;;5074130;28;20024;-69
2024/02/01 06:18:00;;;;;;;1999.90;999.90;;;14.50;99.90;;;;;;5073911;28;20106;-67
2024/02/01 06:20:25;;;;;;;1999.90;999.90;;;14.50;99.90;;;;;;5073938;28;20025;-68
2024/02/01 06:22:51;;;;;;;1999.90;999.90;;;14.60;99.90;;;;;;5074081;28;20119;-74
2024/02/01 06:25:17;;;;;;;1999.90;999.90;;;14.60;99.90;;;;;;5074167;28;20028;-68
2024/02/01 06:27:43;;;;;;;1999.90;999.90;;;14.70;99.90;;;;;;5074057;28;20104;-75
2024/02/01 06:30:12;;;;;;;1999.90;999.90;;;14.70;99.90;;;;;;5073917;28;20082;-67
2024/02/01 06:32:39;;;;;;;1999.90;999.90;;;14.70;99.90;;;;;;5069160;28;20385;-74
2024/02/01 06:35:13;;;;;;;1999.90;999.90;;;14.70;99.90;;;;;;5073332;28;20032;-67
2024/02/01 06:37:40;;;;;;;1999.90;999.90;;;14.70;99.90;;;;;;5066139;28;20038;-67
2024/02/01 06:40:28;;;;;;;1999.90;999.90;;;14.70;99.90;;;;;;5073218;28;20108;-67
2024/02/01 06:43:11;;;;;;;1999.90;999.90;;;14.80;99.90;;;;;;5074179;28;20032;-74
2024/02/01 06:46:00;;;;;;;;;;;14.80;99.90;;;;;;5072551;28;20076;-74
2024/02/01 06:48:40;;;;;;;1999.90;999.90;;;14.80;99.90;;;;;;5073054;28;19915;-68
2024/02/01 06:51:20;;;;;;;1999.90;999.90;;;14.80;99.90;;;;;;5072220;28;20024;-67
2024/02/01 06:53:56;;;;;;;1999.90;999.90;;;14.80;99.90;;;;;;5061939;28;20032;-67
2024/02/01 06:56:44;;;;;;;1999.90;999.90;;;14.90;99.90;;;;;;5072974;28;20089;-75
2024/02/01 06:59:29;;;;;;;1999.90;999.90;;;14.90;99.90;;;;;;5072230;28;20036;-67
2024/02/01 07:04:50;;;;;;;1999.90;999.90;;;15.00;99.90;;;;;;5073852;28;20044;-67
2024/02/01 07:07:26;;;;;;;1999.90;999.90;;;15.00;99.90;;;;;;5071530;28;20041;-67
2024/02/01 07:09:58;;;;;;;1999.90;999.90;;;15.10;99.90;;;;;;5069186;28;20343;-68
2024/02/01 07:12:42;;;;;;;1999.90;999.90;;;15.20;99.90;;;;;;5069298;28;20024;-68
2024/02/01 07:15:30;;;;;;;1999.90;999.90;;;15.10;99.90;;;;;;5072600;28;20032;-67
2024/02/01 07:18:02;;;;;;;1999.90;999.90;;;15.20;99.90;;;;;;5077660;28;20032;-74
2024/02/01 07:21:29;;;;;;;1999.90;999.90;;;15.20;99.90;;;;;;5070080;28;20028;-67
2024/02/01 07:26:06;;;;;;;1999.90;999.90;;;15.30;99.90;;;;;;5081419;28;20035;-67
2024/02/01 07:58:38;;;;;;;1999.90;999.90;;;15.50;99.90;;;;;;5072477;28;20402;-74
2024/02/01 08:01:14;;;;;;;1999.90;999.90;;;15.60;99.90;;;;;;5068543;28;20331;-74
2024/02/01 08:03:58;;;;;;;1999.90;999.90;;;15.60;99.90;;;;;;5069966;28;20107;-68
2024/02/01 08:09:14;;;;;;;1999.90;999.90;;;15.70;99.90;;;;;;5069678;28;20081;-68
2024/02/01 08:11:42;;;;;;;1999.90;999.90;;;15.70;99.90;;;;;;5057017;28;20041;-73
2024/02/01 08:14:13;;;;;;;1999.90;999.90;;;15.70;99.90;;;;;;5069685;28;20489;-74
2024/02/01 08:16:39;;;;;;;1999.90;999.90;;;15.70;99.90;;;;;;5070254;28;20079;-74
2024/02/01 08:19:06;;;;;;;1999.90;999.90;;;15.80;99.90;;;;;;5075094;28;20448;-67
2024/02/01 08:21:37;;;;;;;1999.90;999.90;;;15.80;99.90;;;;;;5080805;28;20471;-75
2024/02/01 08:24:05;;;;;;;1999.90;999.90;;;15.80;99.90;;;;;;5083633;28;20028;-68
2024/02/01 08:26:37;;;;;;;1999.90;999.90;;;15.90;99.90;;;;;;5069772;28;20044;-74
2024/02/01 08:29:06;;;;;;;1999.90;999.90;;;15.90;99.90;;;;;;5080074;28;20052;-68
2024/02/01 08:31:36;;;;;;;1999.90;999.90;;;15.90;99.90;;;;;;5069574;28;20020;-74
2024/02/01 08:34:07;;;;;;;1999.90;999.90;;;15.90;99.90;;;;;;5070629;28;20028;-74
2024/02/01 08:36:34;;;;;;;1999.90;999.90;;;15.90;99.90;;;;;;5077319;28;20498;-69
2024/02/01 08:38:59;;;;;;;1999.90;999.90;;;15.90;99.90;;;;;;5078247;28;20154;-70
2024/02/01 08:41:26;;;;;;;1999.90;999.90;;;15.90;99.90;;;;;;5088020;28;20134;-67
2024/02/01 08:43:54;;;;;;;1999.90;999.90;;;15.90;99.90;;;;;;5073096;28;20023;-74
2024/02/01 08:46:22;;;;;;;1999.90;999.90;;;16.00;99.90;;;;;;5065347;28;20036;-74
2024/02/01 08:48:49;;;;;;;1999.90;999.90;;;16.00;99.90;;;;;;5070451;28;20060;-74
2024/02/01 08:51:17;;;;;;;1999.90;999.90;;;16.00;99.90;;;;;;5068290;28;20033;-67
2024/02/01 08:53:44;;;;;;;1999.90;999.90;;;16.10;99.90;;;;;;5079179;28;20024;-66
2024/02/01 08:56:13;;;;;;;1999.90;999.90;;;16.00;99.90;;;;;;5086155;28;20088;-77
2024/02/01 08:58:39;;;;;;;1999.90;999.90;;;16.00;99.90;;;;;;5076726;28;20032;-68
2024/02/01 09:01:05;;;;;;;1999.90;999.90;;;16.00;99.90;;;;;;5072457;28;20037;-78
2024/02/01 09:03:32;;;;;;;1999.90;999.90;;;16.00;99.90;;;;;;5081932;28;20110;-76
2024/02/01 09:06:08;;;;;;;1999.90;999.90;;;16.00;99.90;;;;;;5093769;28;20047;-76
2024/02/01 09:08:39;;;;;;;1999.90;999.90;;;16.00;99.90;;;;;;5080140;28;20029;-69
2024/02/01 09:11:11;;;;;;;1999.90;999.90;;;16.10;99.90;;;;;;5079269;28;20063;-67
2024/02/01 09:13:37;;;;;;;1999.90;999.90;;;16.10;99.90;;;;;;5075522;28;20078;-68
2024/02/01 09:16:03;;;;;;;1999.90;999.90;;;16.20;99.90;;;;;;5071185;28;20040;-74
2024/02/01 09:18:29;;;;;;;1999.90;999.90;;;16.20;99.90;;;;;;5074823;28;20464;-75
2024/02/01 09:20:55;;;;;;;1999.90;999.90;;;16.20;99.90;;;;;;5075348;28;20051;-68
2024/02/01 09:23:23;;;;;;;1999.90;999.90;;;16.10;99.90;;;;;;5078743;28;20034;-75
2024/02/01 09:25:49;;;;;;;1999.90;999.90;;;16.10;99.90;;;;;;5072352;28;20075;-67
2024/02/01 09:28:17;;;;;;;1999.90;999.90;;;16.10;99.90;;;;;;5077800;28;20083;-69
2024/02/01 09:30:47;;;;;;;1999.90;999.90;;;16.10;99.90;;;;;;5078070;28;20032;-67
2024/02/01 09:33:22;;;;;;;1999.90;999.90;;;16.10;99.90;;;;;;5073871;28;20029;-75
2024/02/01 09:35:48;;;;;;;1999.90;999.90;;;16.10;99.90;;;;;;5079982;28;20063;-73
2024/02/01 09:38:13;;;;;;;1999.90;999.90;;;16.00;99.90;;;;;;5081842;28;20024;-67
2024/02/01 09:40:43;;;;;;;1999.90;999.90;;;15.90;99.90;;;;;;5074251;28;20079;-67
2024/02/01 09:43:23;;;;;;;1999.90;999.90;;;15.80;99.90;;;;;;5080665;28;20422;-67
2024/02/01 09:46:02;;;;;;;1999.90;999.90;;;15.60;99.90;;;;;;5076460;28;20040;-74
2024/02/01 09:48:28;;;;;;;1999.90;999.90;;;15.50;99.90;;;;;;5073955;28;20246;-75
2024/02/01 09:50:55;;;;;;;1999.90;999.90;;;15.40;99.90;;;;;;5076709;28;20576;-68
2024/02/01 09:53:25;;;;;;;1999.90;999.90;;;15.50;99.90;;;;;;5079037;28;20059;-76
2024/02/01 09:56:00;;;;;;;1999.90;999.90;;;15.30;99.90;;;;;;5072574;28;20054;-76
2024/02/01 09:58:29;;;;;;;1999.90;999.90;;;15.20;99.90;;;;;;5076026;28;20039;-76
2024/02/01 10:00:55;;;;;;;1999.90;999.90;;;14.90;99.90;;;;;;5071095;28;20071;-75
2024/02/01 10:03:26;;;;;;;1999.90;999.90;;;14.70;99.90;;;;;;5074365;28;20060;-75
2024/02/01 10:05:51;;;;;;;1999.90;999.90;;;14.70;99.90;;;;;;5075283;28;20052;-67
2024/02/01 10:08:18;;;;;;;1999.90;999.90;;;14.60;99.90;;;;;;5073304;28;20036;-67
2024/02/01 10:10:48;;;;;;;1999.90;999.90;;;14.50;99.90;;;;;;5083473;28;20074;-75
2024/02/01 10:13:16;;;;;;;1999.90;999.90;;;14.40;99.90;;;;;;5078023;28;20028;-75
2024/02/01 10:15:46;;;;;;;1999.90;999.90;;;14.20;99.90;;;;;;5072379;28;20040;-67
2024/02/01 10:18:15;;;;;;;1999.90;999.90;;;14.20;99.90;;;;;;5078947;28;20016;-67
2024/02/01 10:20:53;;;;;;;1999.90;999.90;;;14.20;99.90;;;;;;5073544;28;20037;-67
2024/02/01 10:23:19;;;;;;;1999.90;999.90;;;14.00;99.90;;;;;;5085906;28;20040;-69
2024/02/01 10:25:47;;;;;;;1999.90;999.90;;;13.90;99.90;;;;;;5072154;28;20446;-76
2024/02/01 10:28:18;;;;;;;1999.90;999.90;;;13.90;99.90;;;;;;5086165;28;20033;-68
2024/02/01 10:30:45;;;;;;;1999.90;999.90;;;13.90;99.90;;;;;;5082275;28;20035;-68
2024/02/01 10:33:13;;;;;;;1999.90;999.90;;;13.80;99.90;;;;;;5073869;28;20089;-68
2024/02/01 10:35:40;;;;;;;1999.90;999.90;;;13.80;99.90;;;;;;5079511;28;20069;-69
2024/02/01 10:38:13;;;;;;;1999.90;999.90;;;13.80;99.90;;;;;;5073991;28;20064;-79
2024/02/01 10:40:58;;;;;;;1999.90;999.90;;;13.70;99.90;;;;;;5074954;28;20480;-80
2024/02/01 10:43:31;;;;;;;1999.90;999.90;;;13.60;99.90;;;;;;5076955;28;20028;-69
2024/02/01 10:46:07;;;;;;;1999.90;999.90;;;13.70;99.90;;;;;;5067903;28;20155;-69
2024/02/01 10:48:50;;;;;;;1999.90;999.90;;;13.70;99.90;;;;;;5078593;28;20028;-69
2024/02/01 10:51:17;;;;;;;1999.90;999.90;;;13.70;99.90;;;;;;5076846;28;20039;-78
2024/02/01 10:53:44;;;;;;;1999.90;999.90;;;13.60;99.90;;;;;;5072350;28;20492;-79
2024/02/01 10:56:15;;;;;;;1999.90;999.90;;;13.60;99.90;;;;;;5072559;28;20036;-69
2024/02/01 10:58:40;;;;;;;1999.90;999.90;;;13.50;99.90;;;;;;5077848;28;20032;-78
2024/02/01 11:01:07;;;;;;;1999.90;999.90;;;13.40;99.90;;;;;;5070745;28;20047;-69
2024/02/01 11:03:32;;;;;;;1999.90;999.90;;;13.40;99.90;;;;;;5073917;28;20066;-79
2024/02/01 11:05:58;;;;;;;1999.90;999.90;;;13.50;99.90;;;;;;5075732;28;20186;-69
2024/02/01 11:08:32;;;;;;;1999.90;999.90;;;13.60;99.90;;;;;;5086577;28;20052;-70
2024/02/01 11:11:15;;;;;;;1999.90;999.90;;;13.60;99.90;;;;;;5071817;28;20175;-69
2024/02/01 11:13:43;;;;;;;1999.90;999.90;;;13.70;99.90;;;;;;5070898;28;20028;-69
2024/02/01 11:16:08;;;;;;;1999.90;999.90;;;13.70;99.90;;;;;;5074198;28;20044;-77
2024/02/01 11:18:37;;;;;;;1999.90;999.90;;;13.70;99.90;;;;;;5079172;28;20504;-69
2024/02/01 11:21:06;;;;;;;1999.90;999.90;;;13.70;99.90;;;;;;5071182;28;20395;-77
2024/02/01 11:23:38;;;;;;;1999.90;999.90;;;13.80;99.90;;;;;;5086089;28;20036;-69
2024/02/01 11:26:15;;;;;;;1999.90;999.90;;;13.90;99.90;;;;;;5078263;28;20047;-77
2024/02/01 11:28:40;;;;;;;1999.90;999.90;;;13.70;99.90;;;;;;5071119;28;20464;-69
2024/02/01 11:31:15;;;;;;;1999.90;999.90;;;13.90;99.90;;;;;;5070143;28;20107;-77
2024/02/01 11:33:43;;;;;;;1999.90;999.90;;;14.10;99.90;;;;;;5070997;28;20039;-69
2024/02/01 11:36:08;;;;;;;1999.90;999.90;;;14.10;99.90;;;;;;5071814;28;20040;-78
2024/02/01 11:38:34;;;;;;;1999.90;999.90;;;14.00;99.90;;;;;;5082230;28;20154;-71
2024/02/01 11:41:00;;;;;;;1999.90;999.90;;;14.00;99.90;;;;;;5070792;28;20029;-70
2024/02/01 11:43:26;;;;;;;1999.90;999.90;;;13.90;99.90;;;;;;5088708;28;20063;-77
2024/02/01 11:45:55;;;;;;;1999.90;999.90;;;13.90;99.90;;;;;;5065339;28;20028;-77
2024/02/01 11:48:22;;;;;;;1999.90;999.90;;;13.90;99.90;;;;;;5066898;28;20032;-75
2024/02/01 11:50:53;;;;;;;1999.90;999.90;;;14.00;99.90;;;;;;5069058;28;20134;-69
2024/02/01 11:53:20;;;;;;;1999.90;999.90;;;13.90;99.90;;;;;;5069641;28;20545;-69
2024/02/01 11:55:45;;;;;;;1999.90;999.90;;;14.00;99.90;;;;;;5074505;28;20503;-69
2024/02/01 11:58:14;;;;;;;1999.90;999.90;;;14.00;99.90;;;;;;5068193;28;20071;-69
2024/02/01 12:00:40;;;;;;;1999.90;999.90;;;14.10;99.90;;;;;;5066510;28;20032;-70
2024/02/01 12:03:05;;;;;;;1999.90;999.90;;;14.20;99.90;;;;;;5074956;28;20114;-69
2024/02/01 12:05:32;;;;;;;1999.90;999.90;;;14.30;99.90;;;;;;5069692;28;20045;-69
2024/02/01 12:07:59;;;;;;;1999.90;999.90;;;14.30;99.90;;;;;;5066923;28;20028;-77
2024/02/01 12:10:25;;;;;;;1999.90;999.90;;;14.50;99.90;;;;;;5072501;28;20059;-77
2024/02/01 12:12:51;;;;;;;1999.90;999.90;;;14.50;99.90;;;;;;5072445;28;20031;-69
2024/02/01 12:15:17;;;;;;;1999.90;999.90;;;14.40;99.90;;;;;;5069830;28;20028;-69
2024/02/01 12:17:45;;;;;;;1999.90;999.90;;;14.30;99.90;;;;;;5076407;28;20099;-69
2024/02/01 12:20:12;;;;;;;1999.90;999.90;;;14.40;99.90;;;;;;5074982;28;20531;-76
2024/02/01 12:22:39;;;;;;;1999.90;999.90;;;14.70;99.90;;;;;;5082528;28;20166;-70
2024/02/01 12:25:12;;;;;;;1999.90;999.90;;;15.00;99.90;;;;;;5082769;28;20024;-69
2024/02/01 12:27:40;;;;;;;1999.90;999.90;;;15.20;99.90;;;;;;5073106;28;20036;-76
2024/02/01 12:30:11;;;;;;;1999.90;999.90;;;15.40;99.90;;;;;;5079691;28;20140;-69
2024/02/01 12:32:47;;;;;;;1999.90;999.90;;;15.40;99.90;;;;;;5077954;28;20093;-69
2024/02/01 12:35:19;;;;;;;1999.90;999.90;;;15.20;99.90;;;;;;5083150;28;20021;-77
2024/02/01 12:37:45;;;;;;;1999.90;999.90;;;15.00;99.90;;;;;;5093209;28;20032;-76
2024/02/01 12:40:13;;;;;;;1999.90;999.90;;;14.90;99.90;;;;;;5076831;28;20399;-70
2024/02/01 12:42:45;;;;;;;1999.90;999.90;;;14.80;99.90;;;;;;5089796;28;20589;-70